sensor_id;sensor_type;location;lat;lon;timestamp;P1;durP1;ratioP1;P2;durP2;ratioP2
59702;SDS011;45570;48.782;8.332;2022-11-20T10:54:46;5.38;;;3.28;;
59702;SDS011;45570;48.782;8.332;2022-11-20T10:57:25;3.72;;;2.90;;
59702;SDS011;45570;48.782;8.332;2022-11-20T11:00:07;8.32;;;3.20;;
59702;SDS011;45570;48.782;8.332;2022-11-20T11:02:39;7.68;;;2.83;;
59702;SDS011;45570;48.782;8.332;2022-11-20T11:05:23;4.63;;;2.60;;
59702;SDS011;45570;48.782;8.332;2022-11-20T11:07:59;4.13;;;2.40;;
59702;SDS011;45570;48.782;8.332;2022-11-20T11:10:31;7.40;;;2.88;;
59702;SDS011;45570;48.782;8.332;2022-11-20T11:13:05;5.20;;;2.83;;
59702;SDS011;45570;48.782;8.332;2022-11-20T11:15:37;3.20;;;2.90;;
59702;SDS011;45570;48.782;8.332;2022-11-20T11:18:08;3.28;;;2.67;;
59702;SDS011;45570;48.782;8.332;2022-11-20T11:20:38;4.97;;;2.97;;
59702;SDS011;45570;48.782;8.332;2022-11-20T11:23:10;4.03;;;2.60;;
59702;SDS011;45570;48.782;8.332;2022-11-20T11:25:58;6.38;;;2.83;;
59702;SDS011;45570;48.782;8.332;2022-11-20T11:28:27;3.45;;;2.42;;
59702;SDS011;45570;48.782;8.332;2022-11-20T11:30:56;3.75;;;2.20;;
59702;SDS011;45570;48.782;8.332;2022-11-20T11:33:26;7.32;;;2.63;;
59702;SDS011;45570;48.782;8.332;2022-11-20T11:35:56;8.20;;;2.70;;
59702;SDS011;45570;48.782;8.332;2022-11-20T11:38:28;8.98;;;2.83;;
59702;SDS011;45570;48.782;8.332;2022-11-20T11:41:00;8.15;;;2.67;;
59702;SDS011;45570;48.782;8.332;2022-11-20T11:43:33;7.32;;;2.20;;
59702;SDS011;45570;48.782;8.332;2022-11-20T11:46:28;4.68;;;2.70;;
59702;SDS011;45570;48.782;8.332;2022-11-20T11:48:59;5.35;;;2.63;;
59702;SDS011;45570;48.782;8.332;2022-11-20T11:51:32;6.10;;;2.15;;
59702;SDS011;45570;48.782;8.332;2022-11-20T11:54:19;3.42;;;1.90;;
59702;SDS011;45570;48.782;8.332;2022-11-20T11:56:55;3.38;;;2.25;;
59702;SDS011;45570;48.782;8.332;2022-11-20T11:59:30;5.53;;;1.98;;
59702;SDS011;45570;48.782;8.332;2022-11-20T12:02:11;7.60;;;2.03;;
59702;SDS011;45570;48.782;8.332;2022-11-20T12:04:52;3.58;;;1.80;;
59702;SDS011;45570;48.782;8.332;2022-11-20T12:07:27;3.20;;;2.03;;
59702;SDS011;45570;48.782;8.332;2022-11-20T12:10:14;6.47;;;2.25;;
59702;SDS011;45570;48.782;8.332;2022-11-20T12:12:49;5.15;;;2.20;;
59702;SDS011;45570;48.782;8.332;2022-11-20T12:15:26;8.23;;;2.30;;
59702;SDS011;45570;48.782;8.332;2022-11-20T12:17:58;3.97;;;1.95;;
59702;SDS011;45570;48.782;8.332;2022-11-20T12:20:28;3.38;;;2.40;;
59702;SDS011;45570;48.782;8.332;2022-11-20T12:23:02;5.78;;;2.10;;
59702;SDS011;45570;48.782;8.332;2022-11-20T12:25:37;3.92;;;2.08;;
59702;SDS011;45570;48.782;8.332;2022-11-20T12:28:21;7.25;;;2.20;;
59702;SDS011;45570;48.782;8.332;2022-11-20T12:31:09;5.85;;;2.30;;
59702;SDS011;45570;48.782;8.332;2022-11-20T12:34:00;3.72;;;2.15;;
59702;SDS011;45570;48.782;8.332;2022-11-20T12:36:43;2.75;;;1.80;;
59702;SDS011;45570;48.782;8.332;2022-11-20T12:42:17;6.15;;;2.22;;
59702;SDS011;45570;48.782;8.332;2022-11-20T12:45:28;7.28;;;1.70;;
59702;SDS011;45570;48.782;8.332;2022-11-20T12:48:20;2.88;;;1.50;;
59702;SDS011;45570;48.782;8.332;2022-11-20T12:54:31;3.42;;;1.45;;
59702;SDS011;45570;48.782;8.332;2022-11-20T12:57:22;3.42;;;1.65;;
59702;SDS011;45570;48.782;8.332;2022-11-20T13:00:00;4.05;;;1.45;;
59702;SDS011;45570;48.782;8.332;2022-11-20T13:02:41;4.43;;;2.40;;
59702;SDS011;45570;48.782;8.332;2022-11-20T13:05:27;7.88;;;2.20;;
59702;SDS011;45570;48.782;8.332;2022-11-20T13:08:03;4.55;;;1.45;;
59702;SDS011;45570;48.782;8.332;2022-11-20T13:10:42;5.75;;;1.50;;
59702;SDS011;45570;48.782;8.332;2022-11-20T13:13:16;6.10;;;1.80;;
59702;SDS011;45570;48.782;8.332;2022-11-20T13:15:53;4.70;;;1.67;;
59702;SDS011;45570;48.782;8.332;2022-11-20T13:51:12;3.72;;;1.40;;
59702;SDS011;45570;48.782;8.332;2022-11-20T13:57:07;3.33;;;1.45;;
59702;SDS011;45570;48.782;8.332;2022-11-20T13:59:51;4.20;;;0.90;;
59702;SDS011;45570;48.782;8.332;2022-11-20T14:02:25;4.72;;;1.30;;
59702;SDS011;45570;48.782;8.332;2022-11-20T14:04:56;2.33;;;1.20;;
59702;SDS011;45570;48.782;8.332;2022-11-20T14:07:35;1.50;;;1.25;;
59702;SDS011;45570;48.782;8.332;2022-11-20T14:10:18;2.80;;;1.45;;
59702;SDS011;45570;48.782;8.332;2022-11-20T14:12:55;3.22;;;1.20;;
